createdAt,value
2022-11-06T00:00:42.887Z,98846.34
2022-11-06T00:01:44.242Z,98839.25
2022-11-06T00:02:45.974Z,98843.44
2022-11-06T00:03:47.379Z,98837.94
2022-11-06T00:04:48.674Z,98832.66
2022-11-06T00:05:50.282Z,98828.97
2022-11-06T00:06:51.567Z,98827.66
2022-11-06T00:07:52.944Z,98832.66
2022-11-06T00:08:54.635Z,98830.06
2022-11-06T00:09:55.951Z,98828.22
2022-11-06T00:10:57.665Z,98830.59
2022-11-06T00:11:58.946Z,98836.34
2022-11-06T00:13:00.272Z,98832.97
2022-11-06T00:14:02.068Z,98838.22
2022-11-06T00:15:03.486Z,98831.13
2022-11-06T00:16:09.316Z,98833.50
2022-11-06T00:17:10.635Z,98826.69
2022-11-06T00:18:12.194Z,98831.13
2022-11-06T00:19:14.132Z,98839.00
2022-11-06T00:20:15.500Z,98835.34
2022-11-06T00:21:19.298Z,98832.72
2022-11-06T00:22:20.667Z,98838.75
2022-11-06T00:23:21.989Z,98837.19
2022-11-06T00:24:23.266Z,98837.97
2022-11-06T00:25:24.603Z,98841.41
2022-11-06T00:26:27.179Z,98841.13
2022-11-06T00:27:28.784Z,98840.59
2022-11-06T00:28:30.158Z,98842.19
2022-11-06T00:29:31.452Z,98846.38
2022-11-06T00:30:32.912Z,98844.31
2022-11-06T00:31:36.002Z,98846.94
2022-11-06T00:32:37.686Z,98851.13
2022-11-06T00:33:39.208Z,98847.44
2022-11-06T00:34:40.703Z,98845.09
2022-11-06T00:35:42.035Z,98858.47
2022-11-06T00:36:43.336Z,98848.50
2022-11-06T00:37:44.626Z,98851.63
2022-11-06T00:38:46.093Z,98847.41
2022-11-06T00:39:47.378Z,98846.88
2022-11-06T00:40:48.693Z,98847.69
2022-11-06T00:41:50.008Z,98848.72
2022-11-06T00:42:53.394Z,98847.94
2022-11-06T00:43:59.170Z,98847.41
2022-11-06T00:45:01.195Z,98846.09
2022-11-06T00:46:03.443Z,98844.25
2022-11-06T00:47:04.854Z,98849.78
2022-11-06T00:48:06.275Z,98849.25
2022-11-06T00:49:07.738Z,98852.09
2022-11-06T00:50:09.197Z,98849.22
2022-11-06T00:51:18.190Z,98852.88
2022-11-06T00:52:19.478Z,98848.69
2022-11-06T00:53:21.103Z,98853.91
2022-11-06T00:54:22.541Z,98856.31
2022-11-06T00:55:23.854Z,98850.50
2022-11-06T00:56:25.583Z,98857.31
2022-11-06T00:57:26.939Z,98853.91
2022-11-06T00:58:28.232Z,98858.13
2022-11-06T00:59:29.546Z,98861.00
2022-11-06T01:00:30.928Z,98856.53
2022-11-06T01:01:33.684Z,98860.22
2022-11-06T01:02:35.139Z,98850.50
2022-11-06T01:03:37.198Z,98852.59
2022-11-06T01:04:38.491Z,98847.06
2022-11-06T01:05:39.776Z,98847.06
2022-11-06T01:06:42.406Z,98848.91
2022-11-06T01:07:43.714Z,98848.66
2022-11-06T01:08:45.611Z,98847.06
2022-11-06T01:09:47.001Z,98847.34
2022-11-06T01:10:48.278Z,98859.44
2022-11-06T01:13:12.677Z,98856.00
2022-11-06T01:14:15.079Z,98849.41
2022-11-06T01:15:16.435Z,98854.66
2022-11-06T01:16:18.112Z,98848.59
2022-11-06T01:17:19.404Z,98839.94
2022-11-06T01:18:20.707Z,98849.09
2022-11-06T01:19:22.880Z,98850.94
2022-11-06T01:20:24.186Z,98849.63
2022-11-06T01:21:26.947Z,98849.38
2022-11-06T01:22:28.256Z,98845.16
2022-11-06T01:23:29.535Z,98838.34
2022-11-06T01:24:31.046Z,98828.63
2022-11-06T01:25:32.405Z,98840.19
2022-11-06T01:26:38.535Z,98831.75
2022-11-06T01:27:41.994Z,98828.63
2022-11-06T01:28:43.303Z,98835.72
2022-11-06T01:29:44.871Z,98838.34
2022-11-06T01:30:46.360Z,98842.53
2022-11-06T01:31:48.239Z,98840.97
2022-11-06T01:32:49.541Z,98852.53
2022-11-06T01:33:51.028Z,98845.66
2022-11-06T01:34:52.435Z,98840.69
2022-11-06T01:35:54.430Z,98844.66
2022-11-06T01:36:55.733Z,98850.13
2022-11-06T01:37:57.071Z,98851.19
2022-11-06T01:39:00.622Z,98858.00
2022-11-06T01:40:01.996Z,98855.13
2022-11-06T01:41:03.328Z,98856.94
2022-11-06T01:42:04.670Z,98855.63
2022-11-06T01:43:11.159Z,98855.38
2022-11-06T01:44:31.170Z,98851.66
2022-11-06T01:45:38.482Z,98841.69
2022-11-06T01:46:39.840Z,98846.16
2022-11-06T01:47:41.164Z,98837.19
2022-11-06T01:48:49.781Z,98844.03
2022-11-06T01:49:53.050Z,98835.09
2022-11-06T01:50:56.512Z,98839.03
2022-11-06T01:52:00.395Z,98837.69
2022-11-06T01:53:01.922Z,98833.97
2022-11-06T01:54:04.786Z,98832.69
2022-11-06T01:55:08.762Z,98836.63
2022-11-06T01:56:12.141Z,98838.75
2022-11-06T01:57:13.518Z,98844.50
2022-11-06T01:58:16.480Z,98844.50
2022-11-06T01:59:19.327Z,98835.06
2022-11-06T02:00:20.732Z,98839.25
2022-11-06T02:01:22.577Z,98834.56
2022-11-06T02:02:24.295Z,98833.00
2022-11-06T02:03:25.795Z,98828.53
2022-11-06T02:04:31.802Z,98836.13
2022-11-06T02:05:33.265Z,98833.00
2022-11-06T02:06:34.824Z,98831.16
2022-11-06T02:07:36.576Z,98826.16
2022-11-06T02:08:37.914Z,98827.22
2022-11-06T02:09:39.633Z,98823.00
2022-11-06T02:10:41.615Z,98823.00
2022-11-06T02:11:50.306Z,98830.91
2022-11-06T02:12:58.561Z,98823.28
2022-11-06T02:13:59.896Z,98826.44
2022-11-06T02:15:12.706Z,98822.25
2022-11-06T02:16:32.839Z,98823.53
2022-11-06T02:17:36.777Z,98825.38
2022-11-06T02:18:57.015Z,98812.78
2022-11-06T02:19:58.484Z,98816.41
2022-11-06T02:21:10.965Z,98819.31
2022-11-06T02:22:20.970Z,98817.72
2022-11-06T02:23:32.634Z,98816.94
2022-11-06T02:24:47.321Z,98815.59
2022-11-06T02:25:52.152Z,98816.38
2022-11-06T02:27:08.357Z,98821.41
2022-11-06T02:28:14.515Z,98820.31
2022-11-06T02:29:45.496Z,98808.25
2022-11-06T02:30:47.770Z,98800.38
2022-11-06T02:31:51.407Z,98800.59
2022-11-06T02:33:14.330Z,98805.06
2022-11-06T02:34:17.501Z,98798.53
2022-11-06T02:35:39.083Z,98796.69
2022-11-06T02:36:43.400Z,98796.16
2022-11-06T02:37:46.496Z,98785.91
2022-11-06T02:38:50.210Z,98789.84
2022-11-06T02:39:52.483Z,98786.16
2022-11-06T02:40:55.810Z,98790.09
2022-11-06T02:41:59.214Z,98785.34
2022-11-06T02:43:03.446Z,98780.34
2022-11-06T02:44:07.655Z,98780.88
2022-11-06T02:45:11.086Z,98774.06
2022-11-06T02:46:15.149Z,98773.81
2022-11-06T02:47:18.599Z,98772.75
2022-11-06T02:48:21.590Z,98765.13
2022-11-06T02:49:22.838Z,98761.97
2022-11-06T02:50:26.720Z,98761.97
2022-11-06T02:51:30.303Z,98761.44
2022-11-06T02:52:38.109Z,98759.34
2022-11-06T02:53:41.688Z,98751.47
2022-11-06T02:54:46.457Z,98754.63
2022-11-06T02:55:49.994Z,98750.19
2022-11-06T02:56:52.555Z,98744.13
2022-11-06T02:57:57.058Z,98740.72
2022-11-06T02:59:02.665Z,98739.69
2022-11-06T03:00:06.293Z,98741.28
2022-11-06T03:01:11.403Z,98744.97
2022-11-06T03:02:18.218Z,98738.16
2022-11-06T03:03:26.930Z,98738.38
2022-11-06T03:04:38.938Z,98738.91
2022-11-06T03:05:49.107Z,98734.72
2022-11-06T03:06:59.894Z,98732.91
2022-11-06T03:08:03.929Z,98735.53
2022-11-06T03:09:25.503Z,98731.56
2022-11-06T03:10:29.729Z,98735.75
2022-11-06T03:11:32.696Z,98732.34
2022-11-06T03:12:52.981Z,98731.81
2022-11-06T03:13:58.261Z,98731.31
2022-11-06T03:15:02.931Z,98728.69
2022-11-06T03:16:27.418Z,98735.22
2022-11-06T03:17:51.654Z,98730.25
2022-11-06T03:19:14.004Z,98729.69
2022-11-06T03:20:31.446Z,98727.63
2022-11-06T03:21:52.085Z,98730.75
2022-11-06T03:23:08.390Z,98721.56
2022-11-06T03:24:15.111Z,98723.41
2022-11-06T03:25:22.409Z,98726.53
2022-11-06T03:26:47.436Z,98723.34
2022-11-06T03:28:07.447Z,98727.28
2022-11-06T03:29:17.522Z,98730.97
2022-11-06T03:30:22.051Z,98729.88
2022-11-06T03:31:46.396Z,98730.69
2022-11-06T03:32:51.030Z,98722.00
2022-11-06T03:33:54.466Z,98721.72
2022-11-06T03:35:14.738Z,98729.59
2022-11-06T03:36:18.823Z,98723.28
2022-11-06T03:37:24.971Z,98721.41
2022-11-06T03:38:52.531Z,98722.47
2022-11-06T03:39:55.299Z,98722.16
2022-11-06T03:41:01.851Z,98719.53
2022-11-06T03:42:09.182Z,98719.53
2022-11-06T03:43:12.327Z,98721.38
2022-11-06T03:44:16.804Z,98720.59
2022-11-06T03:45:23.871Z,98711.41
2022-11-06T03:46:26.584Z,98715.63
2022-11-06T03:47:36.630Z,98714.53
2022-11-06T03:48:40.382Z,98712.69
2022-11-06T03:49:45.918Z,98709.56
2022-11-06T03:51:09.405Z,98710.06
2022-11-06T03:52:16.462Z,98711.13
2022-11-06T03:53:29.842Z,98710.34
2022-11-06T03:54:35.662Z,98711.13
2022-11-06T03:55:41.035Z,98708.25
2022-11-06T03:56:57.382Z,98700.63
2022-11-06T03:57:58.660Z,98707.97
2022-11-06T03:59:02.508Z,98709.03
2022-11-06T04:00:05.055Z,98706.66
2022-11-06T04:01:14.425Z,98722.66
2022-11-06T04:02:17.814Z,98718.19
2022-11-06T04:03:28.765Z,98715.28
2022-11-06T04:04:41.365Z,98713.44
2022-11-06T04:05:46.153Z,98711.31
2022-11-06T04:06:51.783Z,98709.50
2022-11-06T04:07:55.595Z,98706.88
2022-11-06T04:09:00.194Z,98706.88
2022-11-06T04:10:03.329Z,98706.31
2022-11-06T04:11:06.286Z,98699.53
2022-11-06T04:12:08.430Z,98704.47
2022-11-06T04:13:09.798Z,98704.47
2022-11-06T04:14:13.339Z,98702.91
2022-11-06T04:15:16.687Z,98693.97
2022-11-06T04:16:18.245Z,98702.13
2022-11-06T04:17:20.009Z,98695.56
2022-11-06T04:18:21.302Z,98687.69
2022-11-06T04:19:22.962Z,98692.13
2022-11-06T04:20:28.035Z,98683.44
2022-11-06T04:21:32.803Z,98693.13
2022-11-06T04:22:37.110Z,98697.59
2022-11-06T04:23:46.062Z,98696.25
2022-11-06T04:25:04.428Z,98700.44
2022-11-06T04:26:12.427Z,98696.00
2022-11-06T04:27:28.258Z,98698.66
2022-11-06T04:28:36.045Z,98701.22
2022-11-06T04:29:56.244Z,98694.13
2022-11-06T04:31:00.788Z,98690.16
2022-11-06T04:32:16.250Z,98688.06
2022-11-06T04:33:25.204Z,98686.22
2022-11-06T04:34:35.626Z,98689.09
2022-11-06T04:35:43.315Z,98689.88
2022-11-06T04:36:50.340Z,98683.31
2022-11-06T04:38:00.758Z,98681.47
2022-11-06T04:39:11.998Z,98678.56
2022-11-06T04:40:25.693Z,98670.94
2022-11-06T04:41:30.673Z,98676.97
2022-11-06T04:42:36.124Z,98672.00
2022-11-06T04:43:43.907Z,98667.53
2022-11-06T04:44:49.450Z,98667.56
2022-11-06T04:45:52.580Z,98662.81
2022-11-06T04:46:57.590Z,98665.97
2022-11-06T04:47:59.725Z,98658.84
2022-11-06T04:49:02.749Z,98658.84
2022-11-06T04:50:05.865Z,98653.88
2022-11-06T04:51:09.307Z,98656.72
2022-11-06T04:52:15.832Z,98650.44
2022-11-06T04:53:18.462Z,98655.69
2022-11-06T04:54:20.076Z,98651.75
2022-11-06T04:55:22.339Z,98649.66
2022-11-06T04:56:29.169Z,98641.50
2022-11-06T04:57:30.740Z,98634.94
2022-11-06T04:58:32.026Z,98642.06
2022-11-06T04:59:35.253Z,98641.25
2022-11-06T05:00:37.602Z,98639.94
2022-11-06T05:01:39.041Z,98635.22
2022-11-06T05:02:40.611Z,98647.00
2022-11-06T05:03:41.915Z,98639.38
2022-11-06T05:04:43.284Z,98647.50
2022-11-06T05:05:44.672Z,98650.66
2022-11-06T05:06:45.957Z,98653.78
2022-11-06T05:07:47.272Z,98665.28
2022-11-06T05:08:48.676Z,98667.13
2022-11-06T05:09:50.019Z,98671.59
2022-11-06T05:10:51.337Z,98667.38
2022-11-06T05:11:52.633Z,98668.13
2022-11-06T05:12:53.905Z,98674.66
2022-11-06T05:13:55.218Z,98675.97
2022-11-06T05:14:56.559Z,98678.56
2022-11-06T05:15:58.337Z,98681.72
2022-11-06T05:16:59.958Z,98680.16
2022-11-06T05:18:01.310Z,98689.84
2022-11-06T05:19:03.116Z,98687.22
2022-11-06T05:20:05.059Z,98689.31
2022-11-06T05:21:06.351Z,98690.34
2022-11-06T05:22:08.830Z,98697.19
2022-11-06T05:23:10.150Z,98695.34
2022-11-06T05:24:11.491Z,98695.09
2022-11-06T05:25:12.806Z,98693.50
2022-11-06T05:26:14.385Z,98692.22
2022-11-06T05:27:15.691Z,98694.03
2022-11-06T05:28:17.011Z,98699.59
2022-11-06T05:29:18.315Z,98689.41
2022-11-06T05:30:19.691Z,98695.13
2022-11-06T05:31:21.053Z,98690.38
2022-11-06T05:32:22.362Z,98694.09
2022-11-06T05:33:23.756Z,98693.28
2022-11-06T05:34:25.049Z,98702.25
2022-11-06T05:35:26.415Z,98697.50
2022-11-06T05:36:27.722Z,98696.97
2022-11-06T05:37:29.002Z,98695.66
2022-11-06T05:38:30.962Z,98695.16
2022-11-06T05:39:32.261Z,98693.03
2022-11-06T05:40:33.556Z,98689.09
2022-11-06T05:41:34.901Z,98681.25
2022-11-06T05:42:42.892Z,98682.50
2022-11-06T05:43:44.273Z,98677.28
2022-11-06T05:44:45.548Z,98680.16
2022-11-06T05:45:46.830Z,98678.56
2022-11-06T05:46:49.521Z,98678.56
2022-11-06T05:47:51.087Z,98684.06
2022-11-06T05:48:52.436Z,98679.84
2022-11-06T05:49:53.738Z,98691.13
2022-11-06T05:51:05.449Z,98696.09
2022-11-06T05:52:06.774Z,98687.44
2022-11-06T05:53:08.075Z,98689.50
2022-11-06T05:54:09.419Z,98684.81
2022-11-06T05:55:14.723Z,98679.59
2022-11-06T05:56:16.915Z,98676.97
2022-11-06T05:57:18.231Z,98675.13
2022-11-06T05:58:19.519Z,98678.84
2022-11-06T05:59:20.839Z,98682.25
2022-11-06T06:00:22.146Z,98684.56
2022-11-06T06:01:23.528Z,98683.78
2022-11-06T06:02:25.044Z,98676.97
2022-11-06T06:03:26.692Z,98688.72
2022-11-06T06:04:27.998Z,98687.13
2022-11-06T06:05:29.397Z,98687.13
2022-11-06T06:06:30.751Z,98687.41
2022-11-06T06:07:32.102Z,98682.94
2022-11-06T06:08:33.433Z,98686.34
2022-11-06T06:09:34.771Z,98687.44
2022-11-06T06:10:40.062Z,98688.75
2022-11-06T06:11:41.390Z,98687.19
2022-11-06T06:12:42.675Z,98690.28
2022-11-06T06:13:44.000Z,98686.59
2022-11-06T06:14:49.373Z,98683.44
2022-11-06T06:15:51.636Z,98688.38
2022-11-06T06:16:52.958Z,98677.63
2022-11-06T06:17:54.239Z,98679.94
2022-11-06T06:18:55.545Z,98685.69
2022-11-06T06:19:56.885Z,98687.53
2022-11-06T06:20:58.420Z,98697.53
2022-11-06T06:21:59.737Z,98688.63
2022-11-06T06:23:01.176Z,98694.34
2022-11-06T06:24:03.535Z,98696.47
2022-11-06T06:25:08.865Z,98691.78
2022-11-06T06:26:13.552Z,98688.94
2022-11-06T06:27:14.867Z,98689.97
2022-11-06T06:28:16.569Z,98689.41
2022-11-06T06:29:18.018Z,98688.09
2022-11-06T06:30:19.816Z,98682.59
2022-11-06T06:31:21.309Z,98680.25
2022-11-06T06:32:22.605Z,98681.81
2022-11-06T06:33:24.063Z,98679.69
2022-11-06T06:34:25.472Z,98679.63
2022-11-06T06:35:26.759Z,98682.25
2022-11-06T06:36:28.089Z,98671.28
2022-11-06T06:37:29.450Z,98676.22
2022-11-06T06:38:31.225Z,98666.22
2022-11-06T06:39:32.523Z,98664.97
2022-11-06T06:40:33.851Z,98671.78
2022-11-06T06:41:35.134Z,98671.78
2022-11-06T06:42:36.415Z,98668.09
2022-11-06T06:43:37.792Z,98673.91
2022-11-06T06:44:39.113Z,98678.59
2022-11-06T06:45:40.451Z,98679.94
2022-11-06T06:46:42.144Z,98677.06
2022-11-06T06:47:43.471Z,98675.00
2022-11-06T06:48:44.811Z,98679.72
2022-11-06T06:49:46.150Z,98683.69
2022-11-06T06:50:47.429Z,98676.31
2022-11-06T06:51:49.423Z,98675.53
2022-11-06T06:52:54.744Z,98672.59
2022-11-06T06:53:56.027Z,98662.13
2022-11-06T06:54:57.331Z,98661.34
2022-11-06T06:55:59.353Z,98651.44
2022-11-06T06:57:00.644Z,98648.03
2022-11-06T06:58:02.105Z,98649.06
2022-11-06T06:59:03.432Z,98654.31
2022-11-06T07:00:04.983Z,98649.88
2022-11-06T07:01:06.424Z,98648.28
2022-11-06T07:02:08.978Z,98651.22
2022-11-06T07:03:10.399Z,98643.66
2022-11-06T07:04:11.731Z,98644.13
2022-11-06T07:05:13.027Z,98636.81
2022-11-06T07:06:14.426Z,98625.53
2022-11-06T07:07:15.731Z,98631.56
2022-11-06T07:08:17.124Z,98624.25
2022-11-06T07:09:18.461Z,98632.13
2022-11-06T07:10:19.770Z,98625.84
2022-11-06T07:11:21.434Z,98621.66
2022-11-06T07:12:22.781Z,98623.22
2022-11-06T07:13:24.087Z,98621.41
2022-11-06T07:14:25.399Z,98623.81
2022-11-06T07:15:26.715Z,98623.56
2022-11-06T07:16:28.059Z,98617.25
2022-11-06T07:17:29.431Z,98618.31
2022-11-06T07:18:30.745Z,98621.47
2022-11-06T07:19:32.066Z,98614.94
2022-11-06T07:20:34.330Z,98606.28
2022-11-06T07:21:35.723Z,98612.31
2022-11-06T07:22:37.834Z,98598.97
2022-11-06T07:23:39.694Z,98601.56
2022-11-06T07:24:41.059Z,98598.69
2022-11-06T07:25:42.394Z,98595.59
2022-11-06T07:26:43.736Z,98593.53
2022-11-06T07:27:45.035Z,98595.09
2022-11-06T07:28:46.403Z,98590.63
2022-11-06T07:29:47.905Z,98584.88
2022-11-06T07:30:49.331Z,98586.72
2022-11-06T07:31:50.614Z,98585.69
2022-11-06T07:32:52.007Z,98582.81
2022-11-06T07:33:53.319Z,98574.69
2022-11-06T07:34:54.618Z,98572.63
2022-11-06T07:35:55.975Z,98575.25
2022-11-06T07:36:57.263Z,98578.16
2022-11-06T07:37:58.563Z,98582.06
2022-11-06T07:38:59.865Z,98576.03
2022-11-06T07:40:01.272Z,98574.47
2022-11-06T07:41:06.700Z,98572.38
2022-11-06T07:42:08.261Z,98568.69
2022-11-06T07:43:11.650Z,98565.78
2022-11-06T07:44:13.021Z,98563.72
2022-11-06T07:45:14.365Z,98563.75
2022-11-06T07:46:15.708Z,98554.56
2022-11-06T07:47:16.990Z,98557.75
2022-11-06T07:48:18.327Z,98554.06
2022-11-06T07:49:19.651Z,98558.03
2022-11-06T07:50:20.932Z,98563.81
2022-11-06T07:51:22.330Z,98555.44
2022-11-06T07:52:23.759Z,98553.06
2022-11-06T07:53:25.137Z,98557.53
2022-11-06T07:54:26.452Z,98557.78
2022-11-06T07:55:27.794Z,98546.00
2022-11-06T07:56:29.114Z,98542.59
2022-11-06T07:57:30.415Z,98537.09
2022-11-06T07:58:33.018Z,98532.38
2022-11-06T07:59:34.539Z,98533.72
2022-11-06T08:00:35.890Z,98532.66
2022-11-06T08:01:37.409Z,98520.63
2022-11-06T08:02:38.870Z,98519.84
2022-11-06T08:03:40.310Z,98518.53
2022-11-06T08:04:41.607Z,98522.22
2022-11-06T08:05:42.998Z,98525.63
2022-11-06T08:06:44.353Z,98518.81
2022-11-06T08:07:45.683Z,98522.50
2022-11-06T08:08:47.036Z,98517.50
2022-11-06T08:09:48.313Z,98513.84
2022-11-06T08:10:49.636Z,98516.47
2022-11-06T08:11:51.079Z,98512.25
2022-11-06T08:12:52.398Z,98515.44
2022-11-06T08:13:53.705Z,98508.88
2022-11-06T08:14:54.981Z,98510.19
2022-11-06T08:15:56.404Z,98507.28
2022-11-06T08:16:57.699Z,98512.31
2022-11-06T08:17:59.367Z,98504.94
2022-11-06T08:19:00.676Z,98502.06
2022-11-06T08:20:02.071Z,98498.66
2022-11-06T08:21:03.962Z,98501.00
2022-11-06T08:22:05.464Z,98496.56
2022-11-06T08:23:08.019Z,98501.00
2022-11-06T08:24:09.398Z,98503.91
2022-11-06T08:25:10.823Z,98506.81
2022-11-06T08:26:14.561Z,98504.69
2022-11-06T08:27:15.873Z,98511.53
2022-11-06T08:28:17.171Z,98510.50
2022-11-06T08:29:18.479Z,98519.66
2022-11-06T08:30:19.802Z,98516.81
2022-11-06T08:31:21.153Z,98519.16
2022-11-06T08:32:22.493Z,98509.44
2022-11-06T08:33:24.659Z,98512.34
2022-11-06T08:34:26.198Z,98518.66
2022-11-06T08:35:27.580Z,98509.44
2022-11-06T08:36:28.899Z,98517.59
2022-11-06T08:37:30.211Z,98514.69
2022-11-06T08:38:31.575Z,98512.63
2022-11-06T08:39:32.871Z,98516.03
2022-11-06T08:40:36.292Z,98520.50
2022-11-06T08:41:38.481Z,98515.47
2022-11-06T08:42:39.768Z,98518.38
2022-11-06T08:43:41.337Z,98523.38
2022-11-06T08:44:42.612Z,98521.53
2022-11-06T08:45:43.950Z,98518.13
2022-11-06T08:46:49.370Z,98515.75
2022-11-06T08:47:53.128Z,98512.09
2022-11-06T08:48:54.445Z,98512.59
2022-11-06T08:49:55.718Z,98501.28
2022-11-06T08:50:57.028Z,98498.16
2022-11-06T08:51:58.321Z,98499.94
2022-11-06T08:53:00.224Z,98505.19
2022-11-06T08:54:01.596Z,98484.69
2022-11-06T08:55:03.051Z,98492.84
2022-11-06T08:56:04.902Z,98496.78
2022-11-06T08:57:06.207Z,98490.97
2022-11-06T08:58:07.628Z,98495.97
2022-11-06T08:59:08.941Z,98499.38
2022-11-06T09:00:10.625Z,98492.53
2022-11-06T09:01:11.971Z,98495.69
2022-11-06T09:02:13.984Z,98494.63
2022-11-06T09:03:16.922Z,98499.63
2022-11-06T09:04:18.543Z,98504.59
2022-11-06T09:05:19.855Z,98505.91
2022-11-06T09:06:21.175Z,98508.28
2022-11-06T09:07:22.477Z,98509.84
2022-11-06T09:08:23.798Z,98505.38
2022-11-06T09:09:25.184Z,98499.56
2022-11-06T09:10:27.389Z,98509.56
2022-11-06T09:11:28.907Z,98498.00
2022-11-06T09:12:30.265Z,98500.63
2022-11-06T09:13:31.565Z,98496.41
2022-11-06T09:14:33.366Z,98502.94
2022-11-06T09:15:34.770Z,98504.28
2022-11-06T09:16:36.096Z,98503.47
2022-11-06T09:17:44.297Z,98499.25
2022-11-06T09:18:45.611Z,98505.28
2022-11-06T09:19:46.925Z,98509.75
2022-11-06T09:20:48.241Z,98515.78
2022-11-06T09:21:54.530Z,98528.66
2022-11-06T09:23:00.224Z,98539.19
2022-11-06T09:24:01.554Z,98548.91
2022-11-06T09:25:04.338Z,98557.06
2022-11-06T09:26:05.993Z,98555.72
2022-11-06T09:27:07.321Z,98551.78
2022-11-06T09:28:08.643Z,98550.97
2022-11-06T09:29:09.965Z,98552.25
2022-11-06T09:30:12.324Z,98537.78
2022-11-06T09:31:13.650Z,98542.25
2022-11-06T09:32:14.993Z,98543.53
2022-11-06T09:33:16.698Z,98542.19
2022-11-06T09:34:18.266Z,98538.19
2022-11-06T09:35:20.967Z,98537.38
2022-11-06T09:36:22.440Z,98525.78
2022-11-06T09:37:23.777Z,98517.06
2022-11-06T09:38:25.129Z,98516.78
2022-11-06T09:39:26.452Z,98516.75
2022-11-06T09:40:33.870Z,98507.50
2022-11-06T09:41:58.038Z,98511.94
2022-11-06T09:43:43.108Z,98504.28
2022-11-06T09:44:43.627Z,98511.88
2022-11-06T09:45:48.006Z,98515.28
2022-11-06T09:46:53.490Z,98507.88
2022-11-06T09:47:59.216Z,98505.47
2022-11-06T09:49:19.323Z,98503.28
2022-11-06T09:50:23.850Z,98498.75
2022-11-06T09:51:34.359Z,98488.16
2022-11-06T09:52:39.073Z,98477.09
2022-11-06T09:53:56.967Z,98480.97
2022-11-06T09:55:18.855Z,98479.84
2022-11-06T09:56:20.925Z,98480.53
2022-11-06T09:57:29.252Z,98477.34
2022-11-06T09:58:33.816Z,98471.84
2022-11-06T09:59:36.973Z,98476.03
2022-11-06T10:00:38.759Z,98463.38
2022-11-06T10:01:43.562Z,98463.59
2022-11-06T10:02:49.894Z,98465.38
2022-11-06T10:03:54.802Z,98468.97
2022-11-06T10:05:13.947Z,98464.94
2022-11-06T10:06:15.368Z,98467.50
2022-11-06T10:07:23.305Z,98467.19
2022-11-06T10:08:26.331Z,98454.72
2022-11-06T10:09:28.253Z,98453.09
2022-11-06T10:10:45.273Z,98447.75
2022-11-06T10:12:07.879Z,98444.47
2022-11-06T10:13:28.087Z,98448.13
2022-11-06T10:14:50.976Z,98440.69
2022-11-06T10:16:00.692Z,98444.13
2022-11-06T10:17:20.782Z,98453.59
2022-11-06T10:18:22.158Z,98460.97
2022-11-06T10:19:32.373Z,98453.03
2022-11-06T10:20:53.930Z,98450.09
2022-11-06T10:22:01.382Z,98446.38
2022-11-06T10:23:02.682Z,98436.84
2022-11-06T10:24:11.447Z,98440.47
2022-11-06T10:25:19.688Z,98444.13
2022-11-06T10:26:28.650Z,98437.19
2022-11-06T10:27:39.450Z,98433.97
2022-11-06T10:28:40.721Z,98430.47
2022-11-06T10:29:41.996Z,98431.75
2022-11-06T10:30:49.319Z,98418.78
2022-11-06T10:32:09.325Z,98415.06
2022-11-06T10:33:29.539Z,98402.63
2022-11-06T10:34:43.560Z,98410.25
2022-11-06T10:35:54.584Z,98401.25
2022-11-06T10:37:00.690Z,98404.69
2022-11-06T10:38:37.544Z,98398.03
2022-11-06T10:39:39.554Z,98392.19
2022-11-06T10:40:43.490Z,98387.38
2022-11-06T10:41:49.135Z,98391.31
2022-11-06T10:43:22.873Z,98384.44
2022-11-06T10:44:28.982Z,98382.88
2022-11-06T10:45:30.320Z,98379.97
2022-11-06T10:46:43.519Z,98369.88
2022-11-06T10:47:50.946Z,98377.03
2022-11-06T10:49:02.834Z,98376.72
2022-11-06T10:50:05.820Z,98376.44
2022-11-06T10:51:07.162Z,98378.81
2022-11-06T10:52:08.504Z,98378.72
2022-11-06T10:53:24.599Z,98377.06
2022-11-06T10:54:41.126Z,98372.47
2022-11-06T10:55:58.767Z,98373.16
2022-11-06T10:57:05.944Z,98370.91
2022-11-06T10:58:07.323Z,98358.56
2022-11-06T10:59:08.781Z,98360.16
2022-11-06T11:00:13.683Z,98357.22
2022-11-06T11:01:15.191Z,98348.00
2022-11-06T11:02:36.838Z,98343.50
2022-11-06T11:03:42.590Z,98336.38
2022-11-06T11:04:43.909Z,98337.16
2022-11-06T11:05:45.365Z,98332.03
2022-11-06T11:06:46.692Z,98335.66
2022-11-06T11:07:49.088Z,98322.06
2022-11-06T11:08:51.331Z,98328.31
2022-11-06T11:09:52.664Z,98324.50
2022-11-06T11:11:04.779Z,98319.03
2022-11-06T11:12:19.078Z,98318.44
2022-11-06T11:13:20.589Z,98311.28
2022-11-06T11:14:23.688Z,98307.56
2022-11-06T11:15:26.395Z,98300.28
2022-11-06T11:16:33.618Z,98299.41
2022-11-06T11:17:34.964Z,98293.34
2022-11-06T11:18:36.316Z,98288.41
2022-11-06T11:19:39.030Z,98289.69
2022-11-06T11:20:41.551Z,98284.59
2022-11-06T11:22:18.540Z,98283.00
2022-11-06T11:23:21.482Z,98278.50
2022-11-06T11:24:22.874Z,98276.03
2022-11-06T11:25:24.939Z,98270.03
2022-11-06T11:26:29.847Z,98264.63
2022-11-06T11:27:38.158Z,98265.88
2022-11-06T11:28:40.375Z,98262.66
2022-11-06T11:29:44.060Z,98261.88
2022-11-06T11:30:50.583Z,98269.81
2022-11-06T11:31:59.695Z,98270.59
2022-11-06T11:33:01.027Z,98262.34
2022-11-06T11:34:07.187Z,98258.00
2022-11-06T11:35:10.360Z,98265.19
2022-11-06T11:36:11.660Z,98263.81
2022-11-06T11:37:33.235Z,98260.84
2022-11-06T11:38:39.193Z,98254.78
2022-11-06T11:39:43.454Z,98251.03
2022-11-06T11:40:44.804Z,98253.38
2022-11-06T11:41:46.254Z,98250.44
2022-11-06T11:42:47.699Z,98256.69
2022-11-06T11:44:05.940Z,98257.94
2022-11-06T11:45:10.253Z,98252.53
2022-11-06T11:46:11.818Z,98239.47
2022-11-06T11:47:23.363Z,98239.16
2022-11-06T11:48:24.741Z,98229.22
2022-11-06T11:49:26.097Z,98225.03
2022-11-06T11:50:27.588Z,98228.94
2022-11-06T11:51:43.432Z,98228.03
2022-11-06T11:52:45.995Z,98224.97
2022-11-06T11:53:47.368Z,98214.56
2022-11-06T11:54:51.333Z,98211.41
2022-11-06T11:55:52.663Z,98214.56
2022-11-06T11:57:07.343Z,98212.19
2022-11-06T11:58:20.314Z,98209.09
2022-11-06T11:59:26.553Z,98210.03
2022-11-06T12:00:28.680Z,98211.78
2022-11-06T12:01:38.311Z,98205.69
2022-11-06T12:02:47.828Z,98200.09
2022-11-06T12:03:50.138Z,98197.13
2022-11-06T12:04:53.654Z,98197.91
2022-11-06T12:06:03.942Z,98201.81
2022-11-06T12:07:06.994Z,98193.56
2022-11-06T12:08:14.236Z,98192.47
2022-11-06T12:09:15.731Z,98198.53
2022-11-06T12:10:23.248Z,98190.31
2022-11-06T12:11:26.030Z,98197.16
2022-11-06T12:12:32.341Z,98195.75
2022-11-06T12:13:33.722Z,98195.75
2022-11-06T12:14:36.704Z,98189.06
2022-11-06T12:15:46.057Z,98189.06
2022-11-06T12:16:51.782Z,98182.06
2022-11-06T12:17:55.038Z,98183.94
2022-11-06T12:18:59.041Z,98176.59
2022-11-06T12:20:03.284Z,98181.91
2022-11-06T12:21:12.282Z,98176.28
2022-11-06T12:22:17.207Z,98179.59
2022-11-06T12:23:37.341Z,98178.78
2022-11-06T12:24:47.372Z,98171.94
2022-11-06T12:25:56.486Z,98172.88
2022-11-06T12:27:00.728Z,98171.00
2022-11-06T12:28:02.939Z,98164.94
2022-11-06T12:29:11.345Z,98161.38
2022-11-06T12:30:14.992Z,98152.31
2022-11-06T12:31:37.222Z,98157.63
2022-11-06T12:32:43.665Z,98154.22
2022-11-06T12:34:05.825Z,98153.44
2022-11-06T12:35:17.007Z,98158.09
2022-11-06T12:36:19.021Z,98154.06
2022-11-06T12:37:29.531Z,98149.53
2022-11-06T12:38:36.731Z,98148.94
2022-11-06T12:39:39.061Z,98147.69